Time;durP1;ratioP1;P1;durP2;ratioP2;P2;SDS_P1;SDS_P2;PMS_P1;PMS_P2;Temp;Humidity;BMP_temperature;BMP_pressure;BME280_temperature;BME280_humidity;BME280_pressure;Samples;Min_cycle;Max_cycle;Signal;HPM_P1;HPM_P2
2021/06/24 00:01:58;;;;;;;22.30;11.23;;;;;;;;;;4920129;29;20448;-79
2021/06/24 00:04:24;;;;;;;24.42;13.15;;;;;;;;;;4920204;29;20438;-78
2021/06/24 00:06:50;;;;;;;24.92;12.38;;;;;;;;;;4920050;29;20027;-79
2021/06/24 00:09:17;;;;;;;30.33;12.18;;;;;;;;;;4937697;29;20056;-79
2021/06/24 00:11:43;;;;;;;22.60;12.93;;;;;;;;;;4937013;29;20032;-79
2021/06/24 00:14:09;;;;;;;27.90;12.77;;;;;;;;;;4919708;29;20038;-81
2021/06/24 00:16:36;;;;;;;22.58;12.10;;;;;;;;;;4919837;29;20032;-81
2021/06/24 00:19:02;;;;;;;24.38;13.13;;;;;;;;;;4936979;29;20024;-80
2021/06/24 00:21:28;;;;;;;27.08;12.95;;;;;;;;;;4937405;29;20082;-80
2021/06/24 00:23:55;;;;;;;25.80;13.63;;;;;;;;;;4937477;29;20032;-81
2021/06/24 00:26:21;;;;;;;24.10;12.80;;;;;;;;;;4936924;29;20032;-80
2021/06/24 00:28:47;;;;;;;28.58;12.75;;;;;;;;;;4919951;29;20035;-79
2021/06/24 00:31:14;;;;;;;28.45;13.73;;;;;;;;;;4936957;29;20035;-79
2021/06/24 00:33:40;;;;;;;29.83;14.43;;;;;;;;;;4919779;29;20039;-80
2021/06/24 00:36:06;;;;;;;26.70;14.55;;;;;;;;;;4936165;29;20106;-79
2021/06/24 00:38:33;;;;;;;27.17;13.48;;;;;;;;;;4919367;29;20402;-81
2021/06/24 00:40:59;;;;;;;28.23;13.77;;;;;;;;;;4937102;29;20024;-81
2021/06/24 00:43:26;;;;;;;23.67;13.93;;;;;;;;;;4919606;29;20130;-81
2021/06/24 00:45:52;;;;;;;26.88;13.88;;;;;;;;;;4919475;29;20063;-79
2021/06/24 00:48:19;;;;;;;25.92;14.63;;;;;;;;;;4919450;29;20504;-80
2021/06/24 00:50:46;;;;;;;31.45;15.05;;;;;;;;;;4936812;29;20103;-81
2021/06/24 00:53:13;;;;;;;26.13;13.40;;;;;;;;;;4936385;29;20535;-80
2021/06/24 00:55:44;;;;;;;26.17;14.15;;;;;;;;;;4919196;29;20045;-81
2021/06/24 00:58:11;;;;;;;28.65;13.48;;;;;;;;;;4919333;29;20030;-80
2021/06/24 01:00:38;;;;;;;34.70;13.45;;;;;;;;;;4936391;29;20512;-81
2021/06/24 01:03:04;;;;;;;29.17;13.88;;;;;;;;;;4919368;29;20039;-81
2021/06/24 01:05:31;;;;;;;25.73;13.55;;;;;;;;;;4919178;29;20041;-80
2021/06/24 01:07:57;;;;;;;27.25;14.20;;;;;;;;;;4919017;29;20207;-81
2021/06/24 01:10:23;;;;;;;25.45;14.45;;;;;;;;;;4919433;29;20039;-80
2021/06/24 01:12:51;;;;;;;25.83;13.55;;;;;;;;;;4919662;29;20078;-81
2021/06/24 01:15:17;;;;;;;31.15;13.85;;;;;;;;;;4919149;29;20202;-81
2021/06/24 01:17:44;;;;;;;26.63;13.70;;;;;;;;;;4936330;29;20035;-81
2021/06/24 01:20:10;;;;;;;25.98;13.95;;;;;;;;;;4919107;29;20079;-79
2021/06/24 01:22:36;;;;;;;25.65;13.82;;;;;;;;;;4918960;29;20039;-80
2021/06/24 01:25:03;;;;;;;28.20;13.88;;;;;;;;;;4936607;29;20414;-81
2021/06/24 01:27:30;;;;;;;33.55;15.07;;;;;;;;;;4936361;29;20019;-81
2021/06/24 01:29:56;;;;;;;32.42;15.48;;;;;;;;;;4936585;29;20034;-80
2021/06/24 01:32:22;;;;;;;28.95;14.75;;;;;;;;;;4918717;29;20054;-80
2021/06/24 01:34:48;;;;;;;29.35;15.15;;;;;;;;;;4935928;29;20040;-80
2021/06/24 01:37:15;;;;;;;27.35;13.48;;;;;;;;;;4936592;29;20028;-80
2021/06/24 01:39:41;;;;;;;32.08;14.32;;;;;;;;;;4918889;29;20140;-81
2021/06/24 01:42:13;;;;;;;24.88;14.13;;;;;;;;;;4919111;29;20433;-79
2021/06/24 01:44:40;;;;;;;25.40;13.77;;;;;;;;;;4918842;29;20099;-80
2021/06/24 01:47:10;;;;;;;26.15;14.20;;;;;;;;;;4918779;29;20036;-81
2021/06/24 01:49:36;;;;;;;22.75;13.48;;;;;;;;;;4922506;29;20024;-80
2021/06/24 01:52:03;;;;;;;30.65;14.45;;;;;;;;;;4922622;29;20119;-81
2021/06/24 01:54:29;;;;;;;26.65;13.68;;;;;;;;;;4940086;29;20158;-81
2021/06/24 01:56:55;;;;;;;23.35;12.80;;;;;;;;;;4939437;29;20043;-80
2021/06/24 01:59:22;;;;;;;26.23;13.70;;;;;;;;;;4939905;29;20015;-80
2021/06/24 02:01:48;;;;;;;24.00;13.68;;;;;;;;;;4939307;29;20047;-80
2021/06/24 02:04:14;;;;;;;32.10;14.20;;;;;;;;;;4922239;29;20115;-80
2021/06/24 02:06:41;;;;;;;28.13;13.75;;;;;;;;;;4939314;29;20132;-80
2021/06/24 02:09:07;;;;;;;25.30;13.70;;;;;;;;;;4939709;29;20075;-79
2021/06/24 02:11:33;;;;;;;28.98;13.55;;;;;;;;;;4922229;29;20122;-80
2021/06/24 02:14:00;;;;;;;30.58;15.15;;;;;;;;;;4921894;29;20366;-80
2021/06/24 02:16:26;;;;;;;26.13;14.35;;;;;;;;;;4939560;29;20050;-81
2021/06/24 02:18:53;;;;;;;26.75;13.80;;;;;;;;;;4938947;29;20031;-80
2021/06/24 02:21:19;;;;;;;29.33;13.02;;;;;;;;;;4938873;29;20059;-81
2021/06/24 02:23:45;;;;;;;23.02;13.65;;;;;;;;;;4939495;29;20031;-81
2021/06/24 02:26:12;;;;;;;27.98;14.93;;;;;;;;;;4921704;29;20509;-80
2021/06/24 02:28:38;;;;;;;27.40;13.07;;;;;;;;;;4921636;29;20035;-81
2021/06/24 02:31:04;;;;;;;29.10;14.30;;;;;;;;;;4921785;29;20048;-79
2021/06/24 02:33:32;;;;;;;29.20;14.82;;;;;;;;;;4938715;29;20023;-80
2021/06/24 02:35:58;;;;;;;24.63;14.23;;;;;;;;;;4939015;29;20417;-80
2021/06/24 02:38:25;;;;;;;27.77;14.32;;;;;;;;;;4918074;29;20036;-80
2021/06/24 02:40:52;;;;;;;29.90;14.18;;;;;;;;;;4918319;29;20115;-80
2021/06/24 02:43:18;;;;;;;25.38;13.48;;;;;;;;;;4918283;29;20036;-80
2021/06/24 02:45:45;;;;;;;25.85;14.60;;;;;;;;;;4920338;29;20366;-80
2021/06/24 02:48:11;;;;;;;25.02;13.45;;;;;;;;;;4919512;29;20032;-80
2021/06/24 02:50:37;;;;;;;23.80;13.27;;;;;;;;;;4918109;29;20057;-80
2021/06/24 02:53:03;;;;;;;25.02;12.80;;;;;;;;;;4920038;29;20036;-80
2021/06/24 02:55:32;;;;;;;26.73;13.27;;;;;;;;;;4918220;29;20044;-83
2021/06/24 02:57:59;;;;;;;27.17;13.75;;;;;;;;;;4920251;29;20087;-86
2021/06/24 03:00:26;;;;;;;33.00;15.48;;;;;;;;;;4918762;29;20032;-86
2021/06/24 03:02:53;;;;;;;36.88;13.82;;;;;;;;;;4918468;29;20020;-85
2021/06/24 03:05:19;;;;;;;23.00;12.43;;;;;;;;;;4919268;29;20036;-80
2021/06/24 03:07:46;;;;;;;29.80;14.55;;;;;;;;;;4917756;29;20445;-79
2021/06/24 03:10:12;;;;;;;27.50;13.93;;;;;;;;;;4918969;29;20035;-79
2021/06/24 03:12:38;;;;;;;28.45;15.05;;;;;;;;;;4919511;29;20028;-79
2021/06/24 03:15:05;;;;;;;29.65;14.55;;;;;;;;;;4917669;29;20032;-79
2021/06/24 03:17:32;;;;;;;29.00;14.57;;;;;;;;;;4917868;29;20110;-80
2021/06/24 03:19:58;;;;;;;24.90;13.68;;;;;;;;;;4918770;29;20115;-80
2021/06/24 03:22:24;;;;;;;24.70;12.50;;;;;;;;;;4917558;29;20028;-80
2021/06/24 03:24:53;;;;;;;33.25;14.32;;;;;;;;;;4918822;29;20032;-79
2021/06/24 03:27:19;;;;;;;30.70;14.13;;;;;;;;;;4919251;29;20451;-78
2021/06/24 03:29:45;;;;;;;27.25;14.48;;;;;;;;;;4917487;29;20071;-78
2021/06/24 03:32:12;;;;;;;25.90;13.38;;;;;;;;;;4919243;29;20351;-79
2021/06/24 03:34:38;;;;;;;26.50;14.80;;;;;;;;;;4918461;29;20035;-79
2021/06/24 03:37:04;;;;;;;28.73;14.35;;;;;;;;;;4917376;29;20028;-78
2021/06/24 03:39:30;;;;;;;30.55;14.60;;;;;;;;;;4931683;29;20047;-80
2021/06/24 03:41:57;;;;;;;27.40;13.43;;;;;;;;;;4920379;29;20031;-80
2021/06/24 03:44:23;;;;;;;24.23;13.68;;;;;;;;;;4937472;29;20032;-78
2021/06/24 03:46:49;;;;;;;24.08;12.57;;;;;;;;;;4920325;29;20027;-79
2021/06/24 03:49:15;;;;;;;28.00;13.05;;;;;;;;;;4937351;29;20031;-79
2021/06/24 03:51:41;;;;;;;26.02;14.38;;;;;;;;;;4920299;29;20390;-79
2021/06/24 03:54:07;;;;;;;29.52;15.18;;;;;;;;;;4920119;29;20075;-79
2021/06/24 03:56:34;;;;;;;27.70;15.43;;;;;;;;;;4920049;29;20047;-81
2021/06/24 03:59:00;;;;;;;22.85;13.13;;;;;;;;;;4937126;29;20107;-80
2021/06/24 04:01:27;;;;;;;29.58;14.82;;;;;;;;;;4919976;29;20032;-81
2021/06/24 04:03:53;;;;;;;37.83;14.85;;;;;;;;;;4936889;29;20385;-81
2021/06/24 04:06:19;;;;;;;25.13;13.55;;;;;;;;;;4937123;29;20027;-79
2021/06/24 04:08:45;;;;;;;27.33;13.48;;;;;;;;;;4919935;29;20075;-77
2021/06/24 04:11:11;;;;;;;32.25;13.50;;;;;;;;;;4936587;29;20569;-80
2021/06/24 04:13:38;;;;;;;24.00;13.43;;;;;;;;;;4919829;29;20027;-81
2021/06/24 04:16:06;;;;;;;24.20;12.05;;;;;;;;;;4919824;29;20078;-80
2021/06/24 04:18:33;;;;;;;21.65;12.30;;;;;;;;;;4919929;29;20058;-81
2021/06/24 04:20:59;;;;;;;20.75;11.90;;;;;;;;;;4938244;29;20035;-80
2021/06/24 04:23:26;;;;;;;20.77;12.60;;;;;;;;;;4937845;29;20024;-80
2021/06/24 04:25:52;;;;;;;24.10;11.60;;;;;;;;;;4919578;29;20032;-80
2021/06/24 04:28:18;;;;;;;20.77;12.30;;;;;;;;;;4937295;29;20035;-80
2021/06/24 04:30:45;;;;;;;21.50;11.32;;;;;;;;;;4936737;29;20099;-80
2021/06/24 04:33:11;;;;;;;20.15;11.23;;;;;;;;;;4936705;29;20028;-80
2021/06/24 04:35:37;;;;;;;20.30;11.68;;;;;;;;;;4936670;29;20111;-80
2021/06/24 04:38:04;;;;;;;17.77;10.75;;;;;;;;;;4919267;29;20031;-80
2021/06/24 04:40:31;;;;;;;18.00;10.95;;;;;;;;;;4937190;29;20087;-80
2021/06/24 04:42:57;;;;;;;18.17;11.05;;;;;;;;;;4919518;29;20171;-80
2021/06/24 04:45:23;;;;;;;17.85;10.13;;;;;;;;;;4919244;29;20067;-80
2021/06/24 04:47:51;;;;;;;17.98;11.85;;;;;;;;;;4919224;29;20031;-80
2021/06/24 04:50:17;;;;;;;20.52;11.68;;;;;;;;;;4936395;29;20028;-81
2021/06/24 04:52:43;;;;;;;21.70;11.18;;;;;;;;;;4919091;29;20028;-81
2021/06/24 04:55:10;;;;;;;18.98;10.63;;;;;;;;;;4936086;29;20039;-80
2021/06/24 04:57:36;;;;;;;17.77;11.10;;;;;;;;;;4919113;29;20035;-81
2021/06/24 05:00:06;;;;;;;25.50;10.63;;;;;;;;;;4919068;29;20393;-81
2021/06/24 05:02:32;;;;;;;19.02;10.77;;;;;;;;;;4936669;29;20032;-81
2021/06/24 05:04:59;;;;;;;16.83;11.70;;;;;;;;;;4936123;29;20028;-81
2021/06/24 05:07:26;;;;;;;22.33;10.82;;;;;;;;;;4936626;29;20548;-81
2021/06/24 05:09:52;;;;;;;17.25;10.48;;;;;;;;;;4918971;29;20027;-81
2021/06/24 05:12:18;;;;;;;19.83;10.75;;;;;;;;;;4919036;29;20110;-81
2021/06/24 05:14:45;;;;;;;16.98;10.75;;;;;;;;;;4936462;29;20482;-81
2021/06/24 05:17:12;;;;;;;16.20;9.80;;;;;;;;;;4918852;29;20035;-81
2021/06/24 05:19:39;;;;;;;16.85;10.43;;;;;;;;;;4918863;29;20039;-81
2021/06/24 05:22:05;;;;;;;20.98;9.77;;;;;;;;;;4919709;29;20034;-81
2021/06/24 05:24:32;;;;;;;17.42;9.13;;;;;;;;;;4939836;29;20432;-81
2021/06/24 05:26:58;;;;;;;14.85;9.07;;;;;;;;;;4939783;29;20046;-81
2021/06/24 05:29:25;;;;;;;16.02;9.18;;;;;;;;;;4939698;29;20094;-81
2021/06/24 05:31:51;;;;;;;25.17;9.20;;;;;;;;;;4937397;29;20043;-79
2021/06/24 05:34:17;;;;;;;13.60;8.73;;;;;;;;;;4920429;29;20024;-82
2021/06/24 05:36:43;;;;;;;19.13;9.80;;;;;;;;;;4922489;29;20036;-82
2021/06/24 05:39:09;;;;;;;15.32;9.77;;;;;;;;;;4918787;29;20048;-80
2021/06/24 05:41:36;;;;;;;17.05;8.15;;;;;;;;;;4920517;29;20028;-81
2021/06/24 05:44:02;;;;;;;16.65;8.57;;;;;;;;;;4919103;29;20067;-82
2021/06/24 05:46:28;;;;;;;17.02;8.77;;;;;;;;;;4920371;29;20115;-80
2021/06/24 05:48:55;;;;;;;16.20;8.93;;;;;;;;;;4920438;29;20035;-83
2021/06/24 05:51:23;;;;;;;23.55;9.60;;;;;;;;;;4918759;29;20039;-81
2021/06/24 05:53:49;;;;;;;17.48;8.75;;;;;;;;;;4919165;29;20028;-83
2021/06/24 05:56:16;;;;;;;14.90;8.68;;;;;;;;;;4918827;29;20493;-81
2021/06/24 05:58:42;;;;;;;16.00;9.40;;;;;;;;;;4918820;29;20132;-83
2021/06/24 06:01:08;;;;;;;15.32;8.02;;;;;;;;;;4918711;29;20370;-83
2021/06/24 06:03:34;;;;;;;20.05;9.23;;;;;;;;;;4918794;29;20397;-83
2021/06/24 06:06:01;;;;;;;18.52;8.05;;;;;;;;;;4918669;29;20493;-82
2021/06/24 06:08:27;;;;;;;14.43;7.82;;;;;;;;;;4918700;29;20031;-81
2021/06/24 06:10:54;;;;;;;17.50;8.45;;;;;;;;;;4919916;29;20139;-82
2021/06/24 06:13:20;;;;;;;13.38;8.38;;;;;;;;;;4919812;29;20032;-83
2021/06/24 06:15:48;;;;;;;15.45;8.45;;;;;;;;;;4918494;29;20036;-83
2021/06/24 06:18:16;;;;;;;18.33;8.75;;;;;;;;;;4918515;29;20032;-84
2021/06/24 06:20:44;;;;;;;15.30;8.63;;;;;;;;;;4919809;29;20032;-82
2021/06/24 06:23:10;;;;;;;14.63;8.10;;;;;;;;;;4918295;29;20038;-83
2021/06/24 06:25:37;;;;;;;17.73;8.05;;;;;;;;;;4918367;29;20032;-83
2021/06/24 06:28:03;;;;;;;12.07;7.38;;;;;;;;;;4918593;29;20020;-83
2021/06/24 06:30:29;;;;;;;16.27;8.45;;;;;;;;;;4919603;29;20032;-82
2021/06/24 06:32:55;;;;;;;18.63;8.35;;;;;;;;;;4918362;29;20080;-82
2021/06/24 06:35:22;;;;;;;16.02;8.02;;;;;;;;;;4917082;29;20036;-83
2021/06/24 06:37:48;;;;;;;13.45;8.43;;;;;;;;;;4918259;29;20436;-83
2021/06/24 06:40:14;;;;;;;12.25;7.22;;;;;;;;;;4918062;29;20144;-83
2021/06/24 06:42:41;;;;;;;10.88;7.88;;;;;;;;;;4919535;29;20555;-82
2021/06/24 06:45:08;;;;;;;12.88;7.75;;;;;;;;;;4917995;29;20114;-82
2021/06/24 06:47:34;;;;;;;14.18;8.57;;;;;;;;;;4918033;29;20039;-84
2021/06/24 06:50:00;;;;;;;12.48;7.57;;;;;;;;;;4919123;29;20028;-82
2021/06/24 06:52:26;;;;;;;11.27;8.20;;;;;;;;;;4917509;29;20028;-83
2021/06/24 06:54:53;;;;;;;13.02;7.78;;;;;;;;;;4917597;29;20367;-83
2021/06/24 06:57:19;;;;;;;15.48;7.57;;;;;;;;;;4917823;29;20401;-82
2021/06/24 06:59:45;;;;;;;13.60;6.97;;;;;;;;;;4917862;29;20058;-82
2021/06/24 07:02:11;;;;;;;15.63;7.05;;;;;;;;;;4917821;29;20036;-83
2021/06/24 07:04:39;;;;;;;12.55;8.23;;;;;;;;;;4917804;29;20108;-83
2021/06/24 07:07:05;;;;;;;11.00;7.15;;;;;;;;;;4917579;29;20099;-82
2021/06/24 07:09:31;;;;;;;13.60;7.55;;;;;;;;;;4917697;29;20115;-83
2021/06/24 07:11:57;;;;;;;12.80;7.25;;;;;;;;;;4917638;29;20039;-81
2021/06/24 07:14:23;;;;;;;11.50;7.20;;;;;;;;;;4917638;29;20083;-84
2021/06/24 07:16:49;;;;;;;13.55;7.30;;;;;;;;;;4917505;29;20117;-83
2021/06/24 07:19:15;;;;;;;11.93;7.95;;;;;;;;;;4917368;29;20111;-77
2021/06/24 07:21:42;;;;;;;13.07;7.45;;;;;;;;;;4917461;29;20052;-82
2021/06/24 07:24:09;;;;;;;12.98;7.30;;;;;;;;;;4917372;29;20096;-82
2021/06/24 07:26:35;;;;;;;14.65;7.53;;;;;;;;;;4918634;29;20032;-80
2021/06/24 07:29:01;;;;;;;11.68;7.07;;;;;;;;;;4917121;29;20031;-83
2021/06/24 07:31:28;;;;;;;12.10;7.18;;;;;;;;;;4918459;29;20111;-80
2021/06/24 07:33:54;;;;;;;16.83;7.15;;;;;;;;;;4917112;29;20401;-83
2021/06/24 07:36:20;;;;;;;10.32;6.60;;;;;;;;;;4917060;29;20043;-83
2021/06/24 07:38:46;;;;;;;10.88;6.78;;;;;;;;;;4916873;29;20052;-82
2021/06/24 07:41:13;;;;;;;11.70;6.70;;;;;;;;;;4916926;29;20049;-83
2021/06/24 07:43:39;;;;;;;9.65;6.88;;;;;;;;;;4917852;29;20558;-84
2021/06/24 07:46:05;;;;;;;13.40;6.93;;;;;;;;;;4918242;29;20500;-83
2021/06/24 07:48:31;;;;;;;11.48;6.70;;;;;;;;;;4916868;29;20060;-82
2021/06/24 07:50:58;;;;;;;13.13;6.85;;;;;;;;;;4916827;29;20036;-81
2021/06/24 07:53:24;;;;;;;16.77;9.85;;;;;;;;;;4916800;29;20028;-83
2021/06/24 07:55:50;;;;;;;21.95;11.25;;;;;;;;;;4916688;29;20123;-83
2021/06/24 07:58:16;;;;;;;14.50;9.57;;;;;;;;;;4916723;29;20025;-82
2021/06/24 08:00:43;;;;;;;16.27;11.02;;;;;;;;;;4916690;29;20397;-82
2021/06/24 08:03:09;;;;;;;17.27;11.15;;;;;;;;;;4917935;29;20020;-82
2021/06/24 08:05:35;;;;;;;14.18;10.57;;;;;;;;;;4917641;29;20033;-80
2021/06/24 08:08:01;;;;;;;18.85;11.48;;;;;;;;;;4917984;29;20095;-83
2021/06/24 08:10:27;;;;;;;16.02;10.68;;;;;;;;;;4917837;29;20103;-82
2021/06/24 08:12:53;;;;;;;17.92;11.38;;;;;;;;;;4917780;29;20028;-82
2021/06/24 08:15:21;;;;;;;18.90;11.93;;;;;;;;;;4916362;29;20051;-82
2021/06/24 08:17:47;;;;;;;17.23;11.40;;;;;;;;;;4916526;29;20079;-83
2021/06/24 08:20:14;;;;;;;20.48;11.82;;;;;;;;;;4916361;29;20032;-82
2021/06/24 08:22:40;;;;;;;19.95;11.68;;;;;;;;;;4916458;29;20035;-83
2021/06/24 08:25:07;;;;;;;16.35;11.05;;;;;;;;;;4916212;29;20032;-81
2021/06/24 08:27:34;;;;;;;18.98;11.50;;;;;;;;;;4917637;29;20036;-82
2021/06/24 08:30:01;;;;;;;16.92;10.95;;;;;;;;;;4916264;29;20041;-83
2021/06/24 08:32:27;;;;;;;16.17;11.25;;;;;;;;;;4917526;29;20032;-82
2021/06/24 08:34:53;;;;;;;16.15;10.82;;;;;;;;;;4917360;29;20043;-82
2021/06/24 08:37:19;;;;;;;16.25;11.32;;;;;;;;;;4915930;29;20044;-83
2021/06/24 08:39:48;;;;;;;15.40;10.48;;;;;;;;;;4915834;29;20070;-82
2021/06/24 08:42:14;;;;;;;16.02;10.98;;;;;;;;;;4917332;29;20055;-82
2021/06/24 08:44:41;;;;;;;15.57;10.82;;;;;;;;;;4915938;29;20030;-81
2021/06/24 08:47:07;;;;;;;19.15;10.43;;;;;;;;;;4915852;29;20032;-79
2021/06/24 08:49:35;;;;;;;17.92;10.85;;;;;;;;;;4917185;29;20051;-82
2021/06/24 08:52:01;;;;;;;16.80;9.57;;;;;;;;;;4915944;29;20123;-83
2021/06/24 08:54:27;;;;;;;15.82;9.63;;;;;;;;;;4915853;29;20024;-82
2021/06/24 08:56:53;;;;;;;18.38;9.77;;;;;;;;;;4915265;29;20466;-83
2021/06/24 08:59:20;;;;;;;20.48;9.70;;;;;;;;;;4915685;29;20091;-83
2021/06/24 09:01:48;;;;;;;14.55;8.77;;;;;;;;;;4917386;29;20079;-82
2021/06/24 09:04:15;;;;;;;13.68;9.23;;;;;;;;;;4915804;29;20020;-82
2021/06/24 09:06:41;;;;;;;16.98;9.20;;;;;;;;;;4915736;29;20431;-82
2021/06/24 09:09:08;;;;;;;13.38;9.20;;;;;;;;;;4915641;29;20046;-82
2021/06/24 09:11:34;;;;;;;15.32;9.27;;;;;;;;;;4915682;29;20031;-82
2021/06/24 09:14:04;;;;;;;10.30;8.05;;;;;;;;;;4915663;29;20083;-82
2021/06/24 09:16:33;;;;;;;15.00;8.50;;;;;;;;;;4916982;29;20123;-82
2021/06/24 09:19:18;;;;;;;16.90;9.25;;;;;;;;;;4916997;29;20028;-82
2021/06/24 09:21:45;;;;;;;13.73;8.80;;;;;;;;;;4917318;29;20023;-83
2021/06/24 09:24:22;;;;;;;13.50;9.13;;;;;;;;;;4915576;29;20032;-82
2021/06/24 09:26:48;;;;;;;18.58;10.10;;;;;;;;;;4915600;29;20087;-83
2021/06/24 09:29:15;;;;;;;16.90;9.75;;;;;;;;;;4915423;29;20032;-82
2021/06/24 09:31:43;;;;;;;15.98;9.15;;;;;;;;;;4915651;29;20060;-82
2021/06/24 09:34:13;;;;;;;13.40;8.60;;;;;;;;;;4915597;29;20466;-82
2021/06/24 09:36:44;;;;;;;18.45;8.30;;;;;;;;;;4916959;29;20040;-82
2021/06/24 09:39:19;;;;;;;17.92;8.00;;;;;;;;;;4927102;29;20535;-83
2021/06/24 09:41:56;;;;;;;13.90;8.15;;;;;;;;;;4918650;29;20038;-82
2021/06/24 09:44:24;;;;;;;13.57;7.85;;;;;;;;;;4935656;29;20020;-81
2021/06/24 09:46:50;;;;;;;12.20;7.93;;;;;;;;;;4935710;29;20019;-83
2021/06/24 09:49:29;;;;;;;16.70;8.32;;;;;;;;;;4918493;29;20035;-84
2021/06/24 09:51:57;;;;;;;17.73;8.35;;;;;;;;;;4918628;29;20493;-81
2021/06/24 09:54:32;;;;;;;14.32;7.97;;;;;;;;;;4918528;29;20028;-83
2021/06/24 09:56:58;;;;;;;13.02;7.18;;;;;;;;;;4935636;29;20114;-82
2021/06/24 09:59:40;;;;;;;9.27;6.82;;;;;;;;;;4918419;29;20123;-82
2021/06/24 10:02:14;;;;;;;13.10;8.07;;;;;;;;;;4918463;29;20115;-81
2021/06/24 10:04:44;;;;;;;12.13;6.93;;;;;;;;;;4918449;29;20020;-82
2021/06/24 10:07:12;;;;;;;12.77;7.03;;;;;;;;;;4935803;29;20481;-82
2021/06/24 10:09:39;;;;;;;14.82;7.20;;;;;;;;;;4920759;29;20480;-79
2021/06/24 10:12:06;;;;;;;10.38;5.95;;;;;;;;;;4938942;29;20036;-82
2021/06/24 10:14:33;;;;;;;15.90;6.90;;;;;;;;;;4921906;29;20024;-82
2021/06/24 10:17:01;;;;;;;14.65;7.22;;;;;;;;;;4938835;29;20036;-82
2021/06/24 10:19:28;;;;;;;9.73;6.40;;;;;;;;;;4921791;29;20125;-82
2021/06/24 10:21:57;;;;;;;11.80;6.03;;;;;;;;;;4938832;29;20108;-83
2021/06/24 10:24:32;;;;;;;10.65;6.95;;;;;;;;;;4921699;29;20042;-79
2021/06/24 10:26:59;;;;;;;13.65;6.97;;;;;;;;;;4921657;29;20074;-82
2021/06/24 10:29:26;;;;;;;11.48;6.53;;;;;;;;;;4921481;29;20039;-82
2021/06/24 10:31:53;;;;;;;13.48;6.93;;;;;;;;;;4938674;29;20047;-79
2021/06/24 10:34:19;;;;;;;16.60;6.95;;;;;;;;;;4927489;29;20158;-82
2021/06/24 10:37:04;;;;;;;15.50;6.93;;;;;;;;;;4911420;29;20517;-79
2021/06/24 10:39:34;;;;;;;13.60;7.13;;;;;;;;;;4918933;29;20055;-82
2021/06/24 10:42:00;;;;;;;12.48;7.07;;;;;;;;;;4928455;29;20024;-80
2021/06/24 10:44:45;;;;;;;13.95;7.10;;;;;;;;;;4930103;29;20055;-80
2021/06/24 10:47:11;;;;;;;14.38;6.88;;;;;;;;;;4938210;29;20028;-82
2021/06/24 10:49:41;;;;;;;12.65;6.65;;;;;;;;;;4921130;29;20039;-82
2021/06/24 10:52:33;;;;;;;20.40;7.30;;;;;;;;;;4921084;29;20111;-82
2021/06/24 10:54:59;;;;;;;12.32;6.97;;;;;;;;;;4935402;29;20044;-83
2021/06/24 10:57:39;;;;;;;18.52;7.45;;;;;;;;;;4920923;29;20110;-83
2021/06/24 11:00:24;;;;;;;24.55;8.32;;;;;;;;;;4920359;29;20043;-81
2021/06/24 11:02:51;;;;;;;16.20;7.28;;;;;;;;;;4920698;29;20028;-81
2021/06/24 11:05:18;;;;;;;15.45;8.48;;;;;;;;;;4920754;29;20036;-81
2021/06/24 11:07:45;;;;;;;16.08;6.90;;;;;;;;;;4938338;29;20032;-79
2021/06/24 11:10:19;;;;;;;13.07;7.40;;;;;;;;;;4920834;29;20035;-81
2021/06/24 11:12:56;;;;;;;15.40;6.45;;;;;;;;;;4938019;29;20095;-82
2021/06/24 11:15:41;;;;;;;11.00;6.45;;;;;;;;;;4920611;29;20069;-82
2021/06/24 11:18:07;;;;;;;20.98;7.28;;;;;;;;;;4920606;29;20035;-81
2021/06/24 11:20:43;;;;;;;14.93;6.55;;;;;;;;;;4920118;29;20034;-80
2021/06/24 11:23:32;;;;;;;11.85;6.35;;;;;;;;;;4937487;29;20031;-82
2021/06/24 11:26:07;;;;;;;12.18;6.30;;;;;;;;;;4937905;29;20031;-81
2021/06/24 11:28:56;;;;;;;11.57;6.70;;;;;;;;;;4923539;29;20434;-79
2021/06/24 11:31:41;;;;;;;14.88;7.07;;;;;;;;;;4937360;29;20115;-82
2021/06/24 11:36:35;;;;;;;11.65;6.10;;;;;;;;;;4937308;29;20039;-82
2021/06/24 11:39:01;;;;;;;15.55;6.18;;;;;;;;;;4937127;29;20055;-81
2021/06/24 11:41:27;;;;;;;14.13;6.40;;;;;;;;;;4910490;29;20055;-80
2021/06/24 11:43:58;;;;;;;17.55;6.28;;;;;;;;;;4926492;29;20497;-81
2021/06/24 11:46:28;;;;;;;18.00;6.68;;;;;;;;;;4910162;29;20024;-82
2021/06/24 12:05:06;;;;;;;16.77;7.38;;;;;;;;;;4937202;29;20031;-81
2021/06/24 12:07:33;;;;;;;13.18;7.45;;;;;;;;;;4936814;29;20034;-81
2021/06/24 12:09:59;;;;;;;13.20;6.30;;;;;;;;;;4937043;29;20023;-82
2021/06/24 12:12:26;;;;;;;15.50;7.22;;;;;;;;;;4919716;29;20032;-82
2021/06/24 12:14:55;;;;;;;17.20;6.95;;;;;;;;;;4919709;29;20035;-82
2021/06/24 12:17:31;;;;;;;12.98;6.95;;;;;;;;;;4919547;29;20074;-80
2021/06/24 12:20:12;;;;;;;15.60;7.10;;;;;;;;;;4919710;29;20036;-83
2021/06/24 12:22:40;;;;;;;19.92;7.97;;;;;;;;;;4936742;29;20027;-83
2021/06/24 12:25:12;;;;;;;20.02;7.30;;;;;;;;;;4919322;29;20043;-82
2021/06/24 12:27:46;;;;;;;16.85;7.18;;;;;;;;;;4920107;29;20080;-83
2021/06/24 12:30:17;;;;;;;21.52;7.45;;;;;;;;;;4903509;29;20063;-82
2021/06/24 12:32:48;;;;;;;16.17;6.68;;;;;;;;;;4916732;29;20024;-82
2021/06/24 12:35:20;;;;;;;15.18;6.40;;;;;;;;;;4917391;29;20028;-81
2021/06/24 12:37:49;;;;;;;12.68;7.00;;;;;;;;;;4900489;29;20028;-81
2021/06/24 12:40:16;;;;;;;15.00;6.38;;;;;;;;;;4900325;29;20095;-82
2021/06/24 12:42:45;;;;;;;21.40;6.85;;;;;;;;;;4900131;29;20032;-82
2021/06/24 12:45:12;;;;;;;24.45;6.93;;;;;;;;;;4899878;29;20454;-81
2021/06/24 12:47:43;;;;;;;27.15;7.40;;;;;;;;;;4899977;29;20505;-81
2021/06/24 12:50:36;;;;;;;17.10;6.70;;;;;;;;;;4900302;29;20032;-82
2021/06/24 12:53:04;;;;;;;12.05;5.78;;;;;;;;;;4897645;29;20040;-81
2021/06/24 12:55:44;;;;;;;17.48;6.40;;;;;;;;;;4900050;29;20477;-81
2021/06/24 12:58:17;;;;;;;22.27;7.10;;;;;;;;;;4900209;29;20393;-81
2021/06/24 13:00:50;;;;;;;22.00;6.82;;;;;;;;;;4900074;29;20072;-80
2021/06/24 13:03:16;;;;;;;14.07;6.78;;;;;;;;;;4900175;29;20422;-81
2021/06/24 13:05:42;;;;;;;21.02;6.53;;;;;;;;;;4900027;29;20024;-81
2021/06/24 13:08:09;;;;;;;18.13;7.70;;;;;;;;;;4899961;29;20512;-81
2021/06/24 13:10:45;;;;;;;16.15;7.13;;;;;;;;;;4900016;29;20039;-80
2021/06/24 13:13:26;;;;;;;17.25;6.32;;;;;;;;;;4899850;29;20465;-81
2021/06/24 13:15:52;;;;;;;15.48;6.13;;;;;;;;;;4899824;29;20123;-81
2021/06/24 13:18:18;;;;;;;20.95;7.15;;;;;;;;;;4899897;29;20039;-82
2021/06/24 13:20:58;;;;;;;22.70;7.82;;;;;;;;;;4900456;29;20036;-81
2021/06/24 13:23:35;;;;;;;24.27;6.28;;;;;;;;;;4899879;29;20028;-82
2021/06/24 13:26:13;;;;;;;14.43;5.50;;;;;;;;;;4916871;29;20032;-81
2021/06/24 13:28:39;;;;;;;20.67;5.78;;;;;;;;;;4906906;29;20055;-81
2021/06/24 13:31:07;;;;;;;13.73;5.30;;;;;;;;;;4918636;29;20028;-81
2021/06/24 13:33:40;;;;;;;17.77;6.00;;;;;;;;;;4936177;29;20469;-82
2021/06/24 13:36:35;;;;;;;14.18;5.90;;;;;;;;;;4936074;29;20036;-80
2021/06/24 13:39:03;;;;;;;17.58;5.05;;;;;;;;;;4915468;29;20075;-81
2021/06/24 13:41:31;;;;;;;13.75;5.10;;;;;;;;;;4918590;29;20028;-81
2021/06/24 13:44:04;;;;;;;25.58;5.70;;;;;;;;;;4937366;29;20445;-80
2021/06/24 13:46:31;;;;;;;14.68;5.05;;;;;;;;;;4921865;29;20074;-81
2021/06/24 13:48:57;;;;;;;12.25;5.53;;;;;;;;;;4922257;29;20035;-81
2021/06/24 13:51:23;;;;;;;16.83;5.38;;;;;;;;;;4922147;29;20090;-81
2021/06/24 13:53:49;;;;;;;16.45;5.40;;;;;;;;;;4922073;29;20477;-81
2021/06/24 13:56:15;;;;;;;15.93;5.80;;;;;;;;;;4922086;29;20040;-82
2021/06/24 13:58:41;;;;;;;14.40;5.30;;;;;;;;;;4939101;29;20035;-83
2021/06/24 14:01:07;;;;;;;19.17;5.50;;;;;;;;;;4939106;29;20268;-82
2021/06/24 14:03:34;;;;;;;23.00;5.18;;;;;;;;;;4922450;29;20028;-81
2021/06/24 14:06:00;;;;;;;17.95;5.43;;;;;;;;;;4939325;29;20545;-82
2021/06/24 14:08:27;;;;;;;14.65;4.65;;;;;;;;;;4922000;29;20028;-83
2021/06/24 14:10:53;;;;;;;18.15;5.95;;;;;;;;;;4922292;29;20051;-82
2021/06/24 14:13:19;;;;;;;16.17;5.22;;;;;;;;;;4938852;29;20444;-82
2021/06/24 14:15:45;;;;;;;20.98;5.90;;;;;;;;;;4938779;29;20063;-81
2021/06/24 14:18:11;;;;;;;13.32;4.88;;;;;;;;;;4921795;29;20032;-81
2021/06/24 14:20:37;;;;;;;17.77;4.72;;;;;;;;;;4921668;29;20422;-82
2021/06/24 14:23:04;;;;;;;12.55;4.47;;;;;;;;;;4920951;29;20441;-82
2021/06/24 14:25:30;;;;;;;17.00;5.60;;;;;;;;;;4921616;29;20082;-81
2021/06/24 14:27:56;;;;;;;16.75;5.00;;;;;;;;;;4938679;29;20036;-82
2021/06/24 14:30:23;;;;;;;17.88;5.43;;;;;;;;;;4920840;29;20020;-87
2021/06/24 14:32:49;;;;;;;13.15;4.80;;;;;;;;;;4921372;29;20055;-81
2021/06/24 14:35:16;;;;;;;20.13;5.35;;;;;;;;;;4921689;29;20036;-84
2021/06/24 14:37:42;;;;;;;21.40;5.18;;;;;;;;;;4921562;29;20496;-83
2021/06/24 14:40:11;;;;;;;16.13;4.72;;;;;;;;;;4938463;29;20118;-82
2021/06/24 14:42:37;;;;;;;13.25;5.35;;;;;;;;;;4938522;29;20057;-81
2021/06/24 14:45:04;;;;;;;26.65;5.63;;;;;;;;;;4920233;29;20046;-82
2021/06/24 14:47:30;;;;;;;22.50;5.63;;;;;;;;;;4920307;29;20507;-81